sensor_id;sensor_type;location;lat;lon;timestamp;temperature;humidity
6518;DHT22;3292;48.944;9.240;2022-12-26T00:00:34;10.60;99.90
6518;DHT22;3292;48.944;9.240;2022-12-26T00:03:01;10.60;99.90
6518;DHT22;3292;48.944;9.240;2022-12-26T00:05:34;10.60;99.90
6518;DHT22;3292;48.944;9.240;2022-12-26T00:08:01;10.70;99.90
6518;DHT22;3292;48.944;9.240;2022-12-26T00:10:27;10.70;99.90
6518;DHT22;3292;48.944;9.240;2022-12-26T00:12:54;10.60;99.90
6518;DHT22;3292;48.944;9.240;2022-12-26T00:15:22;10.60;99.90
6518;DHT22;3292;48.944;9.240;2022-12-26T00:17:49;10.60;99.90
6518;DHT22;3292;48.944;9.240;2022-12-26T00:20:17;10.50;99.90
6518;DHT22;3292;48.944;9.240;2022-12-26T00:22:47;10.50;99.90
6518;DHT22;3292;48.944;9.240;2022-12-26T00:25:15;10.40;99.90
6518;DHT22;3292;48.944;9.240;2022-12-26T00:27:42;10.40;99.90
6518;DHT22;3292;48.944;9.240;2022-12-26T00:30:13;10.40;99.90
6518;DHT22;3292;48.944;9.240;2022-12-26T00:32:43;10.40;99.90
6518;DHT22;3292;48.944;9.240;2022-12-26T00:35:11;10.40;99.90
6518;DHT22;3292;48.944;9.240;2022-12-26T00:37:38;10.40;99.90
6518;DHT22;3292;48.944;9.240;2022-12-26T00:40:07;10.30;99.90
6518;DHT22;3292;48.944;9.240;2022-12-26T00:42:34;10.30;99.90
6518;DHT22;3292;48.944;9.240;2022-12-26T00:45:01;10.20;99.90
6518;DHT22;3292;48.944;9.240;2022-12-26T00:47:28;10.20;99.90
6518;DHT22;3292;48.944;9.240;2022-12-26T00:49:55;10.20;99.90
6518;DHT22;3292;48.944;9.240;2022-12-26T00:52:22;10.20;99.90
6518;DHT22;3292;48.944;9.240;2022-12-26T00:54:49;10.20;99.90
6518;DHT22;3292;48.944;9.240;2022-12-26T00:57:17;10.20;99.90
6518;DHT22;3292;48.944;9.240;2022-12-26T00:59:44;10.30;99.90
6518;DHT22;3292;48.944;9.240;2022-12-26T01:02:10;10.30;99.90
6518;DHT22;3292;48.944;9.240;2022-12-26T01:04:51;10.30;99.90
6518;DHT22;3292;48.944;9.240;2022-12-26T01:07:18;10.20;99.90
6518;DHT22;3292;48.944;9.240;2022-12-26T01:09:45;10.20;99.90
6518;DHT22;3292;48.944;9.240;2022-12-26T01:12:12;10.10;99.90
6518;DHT22;3292;48.944;9.240;2022-12-26T01:14:41;10.00;99.90
6518;DHT22;3292;48.944;9.240;2022-12-26T01:17:09;10.00;99.90
6518;DHT22;3292;48.944;9.240;2022-12-26T01:19:37;10.00;99.90
6518;DHT22;3292;48.944;9.240;2022-12-26T01:22:06;9.90;99.90
6518;DHT22;3292;48.944;9.240;2022-12-26T01:24:34;9.80;99.90
6518;DHT22;3292;48.944;9.240;2022-12-26T01:27:02;9.80;99.90
6518;DHT22;3292;48.944;9.240;2022-12-26T01:29:31;9.80;99.90
6518;DHT22;3292;48.944;9.240;2022-12-26T01:32:00;9.90;99.90
6518;DHT22;3292;48.944;9.240;2022-12-26T01:34:29;9.90;99.90
6518;DHT22;3292;48.944;9.240;2022-12-26T01:36:59;9.90;99.90
6518;DHT22;3292;48.944;9.240;2022-12-26T01:39:27;9.90;99.90
6518;DHT22;3292;48.944;9.240;2022-12-26T01:41:55;9.90;99.90
6518;DHT22;3292;48.944;9.240;2022-12-26T01:44:55;9.90;99.90
6518;DHT22;3292;48.944;9.240;2022-12-26T01:47:37;9.90;99.90
6518;DHT22;3292;48.944;9.240;2022-12-26T01:50:14;9.90;99.90
6518;DHT22;3292;48.944;9.240;2022-12-26T01:52:44;9.90;99.90
6518;DHT22;3292;48.944;9.240;2022-12-26T01:55:14;9.90;99.90
6518;DHT22;3292;48.944;9.240;2022-12-26T01:57:44;10.00;99.90
6518;DHT22;3292;48.944;9.240;2022-12-26T02:00:14;10.00;99.90
6518;DHT22;3292;48.944;9.240;2022-12-26T02:02:43;10.10;99.90
6518;DHT22;3292;48.944;9.240;2022-12-26T02:05:28;10.10;99.90
6518;DHT22;3292;48.944;9.240;2022-12-26T02:08:04;10.10;99.90
6518;DHT22;3292;48.944;9.240;2022-12-26T02:10:34;10.10;99.90
6518;DHT22;3292;48.944;9.240;2022-12-26T02:13:02;10.10;99.90
6518;DHT22;3292;48.944;9.240;2022-12-26T02:15:30;10.10;99.90
6518;DHT22;3292;48.944;9.240;2022-12-26T02:17:58;10.00;99.90
6518;DHT22;3292;48.944;9.240;2022-12-26T02:20:27;10.10;99.90
6518;DHT22;3292;48.944;9.240;2022-12-26T02:29:43;10.00;99.90
6518;DHT22;3292;48.944;9.240;2022-12-26T02:32:24;9.90;99.90
6518;DHT22;3292;48.944;9.240;2022-12-26T02:35:05;9.90;99.90
6518;DHT22;3292;48.944;9.240;2022-12-26T02:37:45;9.90;99.90
6518;DHT22;3292;48.944;9.240;2022-12-26T02:40:39;10.00;99.90
6518;DHT22;3292;48.944;9.240;2022-12-26T02:43:20;10.00;99.90
6518;DHT22;3292;48.944;9.240;2022-12-26T02:45:56;10.00;99.90
6518;DHT22;3292;48.944;9.240;2022-12-26T02:49:05;10.10;99.90
6518;DHT22;3292;48.944;9.240;2022-12-26T02:51:49;10.10;99.90
6518;DHT22;3292;48.944;9.240;2022-12-26T02:54:41;10.10;99.90
6518;DHT22;3292;48.944;9.240;2022-12-26T02:57:33;10.10;99.90
6518;DHT22;3292;48.944;9.240;2022-12-26T03:00:25;10.10;99.90
6518;DHT22;3292;48.944;9.240;2022-12-26T03:03:15;10.10;99.90
6518;DHT22;3292;48.944;9.240;2022-12-26T03:06:04;10.00;99.90
6518;DHT22;3292;48.944;9.240;2022-12-26T03:08:54;10.00;99.90
6518;DHT22;3292;48.944;9.240;2022-12-26T03:11:46;10.00;99.90
6518;DHT22;3292;48.944;9.240;2022-12-26T03:14:41;10.00;99.90
6518;DHT22;3292;48.944;9.240;2022-12-26T03:17:14;10.10;99.90
6518;DHT22;3292;48.944;9.240;2022-12-26T03:19:48;10.10;99.90
6518;DHT22;3292;48.944;9.240;2022-12-26T03:22:34;10.10;99.90
6518;DHT22;3292;48.944;9.240;2022-12-26T03:25:06;10.20;99.90
6518;DHT22;3292;48.944;9.240;2022-12-26T03:27:52;10.20;99.90
6518;DHT22;3292;48.944;9.240;2022-12-26T03:30:23;10.20;99.90
6518;DHT22;3292;48.944;9.240;2022-12-26T03:33:09;10.20;99.90
6518;DHT22;3292;48.944;9.240;2022-12-26T03:35:50;10.20;99.90
6518;DHT22;3292;48.944;9.240;2022-12-26T03:38:23;10.20;99.90
6518;DHT22;3292;48.944;9.240;2022-12-26T03:40:54;10.30;99.90
6518;DHT22;3292;48.944;9.240;2022-12-26T03:43:58;10.20;99.90
6518;DHT22;3292;48.944;9.240;2022-12-26T03:47:12;10.20;99.90
6518;DHT22;3292;48.944;9.240;2022-12-26T03:50:05;10.30;99.90
6518;DHT22;3292;48.944;9.240;2022-12-26T03:53:01;10.20;99.90
6518;DHT22;3292;48.944;9.240;2022-12-26T03:55:54;10.30;99.90
6518;DHT22;3292;48.944;9.240;2022-12-26T03:58:45;10.30;99.90
6518;DHT22;3292;48.944;9.240;2022-12-26T04:01:41;10.30;99.90
6518;DHT22;3292;48.944;9.240;2022-12-26T04:04:33;10.40;99.90
6518;DHT22;3292;48.944;9.240;2022-12-26T04:07:21;10.40;99.90
6518;DHT22;3292;48.944;9.240;2022-12-26T04:10:11;10.40;99.90
6518;DHT22;3292;48.944;9.240;2022-12-26T04:13:00;10.30;99.90
6518;DHT22;3292;48.944;9.240;2022-12-26T04:15:52;10.30;99.90
6518;DHT22;3292;48.944;9.240;2022-12-26T04:18:41;10.20;99.90
6518;DHT22;3292;48.944;9.240;2022-12-26T04:21:33;10.30;99.90
6518;DHT22;3292;48.944;9.240;2022-12-26T04:24:25;10.30;99.90
6518;DHT22;3292;48.944;9.240;2022-12-26T04:27:14;10.20;99.90
6518;DHT22;3292;48.944;9.240;2022-12-26T04:30:02;10.20;99.90
6518;DHT22;3292;48.944;9.240;2022-12-26T04:32:48;10.20;99.90
6518;DHT22;3292;48.944;9.240;2022-12-26T04:35:40;10.10;99.90
6518;DHT22;3292;48.944;9.240;2022-12-26T04:38:30;10.10;99.90
6518;DHT22;3292;48.944;9.240;2022-12-26T04:41:19;10.10;99.90
6518;DHT22;3292;48.944;9.240;2022-12-26T04:44:06;10.10;99.90
6518;DHT22;3292;48.944;9.240;2022-12-26T04:46:42;10.20;99.90
6518;DHT22;3292;48.944;9.240;2022-12-26T04:49:12;10.20;99.90
6518;DHT22;3292;48.944;9.240;2022-12-26T04:52:15;10.30;99.90
6518;DHT22;3292;48.944;9.240;2022-12-26T04:54:43;10.30;99.90
6518;DHT22;3292;48.944;9.240;2022-12-26T04:57:13;10.50;99.90
6518;DHT22;3292;48.944;9.240;2022-12-26T04:59:51;10.60;99.90
6518;DHT22;3292;48.944;9.240;2022-12-26T05:02:20;10.60;99.90
6518;DHT22;3292;48.944;9.240;2022-12-26T05:05:09;10.60;99.90
6518;DHT22;3292;48.944;9.240;2022-12-26T05:07:53;10.70;99.90
6518;DHT22;3292;48.944;9.240;2022-12-26T05:10:50;10.70;99.90
6518;DHT22;3292;48.944;9.240;2022-12-26T05:13:19;10.70;99.90
6518;DHT22;3292;48.944;9.240;2022-12-26T05:15:47;10.70;99.90
6518;DHT22;3292;48.944;9.240;2022-12-26T05:18:34;10.70;99.90
6518;DHT22;3292;48.944;9.240;2022-12-26T05:21:18;10.80;99.90
6518;DHT22;3292;48.944;9.240;2022-12-26T05:24:04;10.80;99.90
6518;DHT22;3292;48.944;9.240;2022-12-26T05:26:52;10.70;99.90
6518;DHT22;3292;48.944;9.240;2022-12-26T05:29:37;10.80;99.90
6518;DHT22;3292;48.944;9.240;2022-12-26T05:32:04;10.80;99.90
6518;DHT22;3292;48.944;9.240;2022-12-26T05:34:34;10.80;99.90
6518;DHT22;3292;48.944;9.240;2022-12-26T05:37:00;10.80;99.90
6518;DHT22;3292;48.944;9.240;2022-12-26T05:39:27;10.80;99.90
6518;DHT22;3292;48.944;9.240;2022-12-26T05:41:54;10.80;99.90
6518;DHT22;3292;48.944;9.240;2022-12-26T05:44:21;10.90;99.90
6518;DHT22;3292;48.944;9.240;2022-12-26T05:46:48;10.90;99.90
6518;DHT22;3292;48.944;9.240;2022-12-26T05:49:14;11.00;99.90
6518;DHT22;3292;48.944;9.240;2022-12-26T05:51:43;11.00;99.90
6518;DHT22;3292;48.944;9.240;2022-12-26T05:54:09;11.00;99.90
6518;DHT22;3292;48.944;9.240;2022-12-26T05:56:36;11.00;99.90
6518;DHT22;3292;48.944;9.240;2022-12-26T05:59:03;10.90;99.90
6518;DHT22;3292;48.944;9.240;2022-12-26T06:01:30;11.00;99.90
6518;DHT22;3292;48.944;9.240;2022-12-26T06:03:58;11.00;99.90
6518;DHT22;3292;48.944;9.240;2022-12-26T06:06:25;11.00;99.90
6518;DHT22;3292;48.944;9.240;2022-12-26T06:08:55;11.10;99.90
6518;DHT22;3292;48.944;9.240;2022-12-26T06:11:23;11.20;99.90
6518;DHT22;3292;48.944;9.240;2022-12-26T06:13:51;11.20;99.90
6518;DHT22;3292;48.944;9.240;2022-12-26T06:16:18;11.20;99.90
6518;DHT22;3292;48.944;9.240;2022-12-26T06:18:45;11.20;99.90
6518;DHT22;3292;48.944;9.240;2022-12-26T06:21:14;11.20;99.90
6518;DHT22;3292;48.944;9.240;2022-12-26T06:23:41;11.20;99.90
6518;DHT22;3292;48.944;9.240;2022-12-26T06:26:10;11.20;99.90
6518;DHT22;3292;48.944;9.240;2022-12-26T06:28:38;11.10;99.90
6518;DHT22;3292;48.944;9.240;2022-12-26T06:31:07;11.20;99.90
6518;DHT22;3292;48.944;9.240;2022-12-26T06:33:34;11.10;99.90
6518;DHT22;3292;48.944;9.240;2022-12-26T06:36:03;11.10;99.90
6518;DHT22;3292;48.944;9.240;2022-12-26T06:38:30;11.20;99.90
6518;DHT22;3292;48.944;9.240;2022-12-26T06:40:57;11.20;99.90
6518;DHT22;3292;48.944;9.240;2022-12-26T06:43:27;11.10;99.90
6518;DHT22;3292;48.944;9.240;2022-12-26T06:45:55;11.20;99.90
6518;DHT22;3292;48.944;9.240;2022-12-26T06:48:24;11.20;99.90
6518;DHT22;3292;48.944;9.240;2022-12-26T06:51:08;11.20;99.90
6518;DHT22;3292;48.944;9.240;2022-12-26T06:53:37;11.20;99.90
6518;DHT22;3292;48.944;9.240;2022-12-26T06:56:10;11.20;99.90
6518;DHT22;3292;48.944;9.240;2022-12-26T06:58:40;11.20;99.90
6518;DHT22;3292;48.944;9.240;2022-12-26T07:01:09;11.20;99.90
6518;DHT22;3292;48.944;9.240;2022-12-26T07:03:38;11.10;99.90
6518;DHT22;3292;48.944;9.240;2022-12-26T07:06:11;11.10;99.90
6518;DHT22;3292;48.944;9.240;2022-12-26T07:08:39;11.20;99.90
6518;DHT22;3292;48.944;9.240;2022-12-26T07:11:12;11.20;99.90
6518;DHT22;3292;48.944;9.240;2022-12-26T07:13:42;11.20;99.90
6518;DHT22;3292;48.944;9.240;2022-12-26T07:16:10;11.20;99.90
6518;DHT22;3292;48.944;9.240;2022-12-26T07:18:39;11.20;99.90
6518;DHT22;3292;48.944;9.240;2022-12-26T07:21:10;11.20;99.90
6518;DHT22;3292;48.944;9.240;2022-12-26T07:23:38;11.20;99.90
6518;DHT22;3292;48.944;9.240;2022-12-26T07:26:07;11.20;99.90
6518;DHT22;3292;48.944;9.240;2022-12-26T07:28:35;11.20;99.90
6518;DHT22;3292;48.944;9.240;2022-12-26T07:31:05;11.20;99.90
6518;DHT22;3292;48.944;9.240;2022-12-26T07:33:33;11.10;99.90
6518;DHT22;3292;48.944;9.240;2022-12-26T07:36:02;11.10;99.90
6518;DHT22;3292;48.944;9.240;2022-12-26T07:38:31;11.10;99.90
6518;DHT22;3292;48.944;9.240;2022-12-26T07:40:59;11.00;99.90
6518;DHT22;3292;48.944;9.240;2022-12-26T07:43:48;11.00;99.90
6518;DHT22;3292;48.944;9.240;2022-12-26T07:46:17;11.00;99.90
6518;DHT22;3292;48.944;9.240;2022-12-26T07:48:45;10.90;99.90
6518;DHT22;3292;48.944;9.240;2022-12-26T07:51:16;10.80;99.90
6518;DHT22;3292;48.944;9.240;2022-12-26T07:53:44;10.80;99.90
6518;DHT22;3292;48.944;9.240;2022-12-26T07:56:14;10.80;99.90
6518;DHT22;3292;48.944;9.240;2022-12-26T07:58:42;10.80;99.90
6518;DHT22;3292;48.944;9.240;2022-12-26T08:01:10;10.70;99.90
6518;DHT22;3292;48.944;9.240;2022-12-26T08:03:40;10.70;99.90
6518;DHT22;3292;48.944;9.240;2022-12-26T08:06:11;10.70;99.90
6518;DHT22;3292;48.944;9.240;2022-12-26T08:08:39;10.70;99.90
6518;DHT22;3292;48.944;9.240;2022-12-26T08:11:13;10.70;99.90
6518;DHT22;3292;48.944;9.240;2022-12-26T08:13:41;10.60;99.90
6518;DHT22;3292;48.944;9.240;2022-12-26T08:16:11;10.60;99.90
6518;DHT22;3292;48.944;9.240;2022-12-26T08:18:41;10.60;99.90
6518;DHT22;3292;48.944;9.240;2022-12-26T08:21:14;10.60;99.90
6518;DHT22;3292;48.944;9.240;2022-12-26T08:23:42;10.60;99.90
6518;DHT22;3292;48.944;9.240;2022-12-26T08:26:16;10.60;99.90
6518;DHT22;3292;48.944;9.240;2022-12-26T08:28:49;10.60;99.90
6518;DHT22;3292;48.944;9.240;2022-12-26T08:31:18;10.50;99.90
6518;DHT22;3292;48.944;9.240;2022-12-26T08:33:48;10.50;99.90
6518;DHT22;3292;48.944;9.240;2022-12-26T08:36:16;10.50;99.90
6518;DHT22;3292;48.944;9.240;2022-12-26T08:38:45;10.50;99.90
6518;DHT22;3292;48.944;9.240;2022-12-26T08:41:16;10.50;99.90
6518;DHT22;3292;48.944;9.240;2022-12-26T08:43:47;10.50;99.90
6518;DHT22;3292;48.944;9.240;2022-12-26T08:46:15;10.40;99.90
6518;DHT22;3292;48.944;9.240;2022-12-26T08:48:43;10.40;99.90
6518;DHT22;3292;48.944;9.240;2022-12-26T08:51:14;10.40;99.90
6518;DHT22;3292;48.944;9.240;2022-12-26T08:53:43;10.40;99.90
6518;DHT22;3292;48.944;9.240;2022-12-26T08:56:13;10.40;99.90
6518;DHT22;3292;48.944;9.240;2022-12-26T08:58:42;10.30;99.90
6518;DHT22;3292;48.944;9.240;2022-12-26T09:01:12;10.20;99.90
6518;DHT22;3292;48.944;9.240;2022-12-26T09:03:41;10.10;99.90
6518;DHT22;3292;48.944;9.240;2022-12-26T09:06:09;10.00;99.90
6518;DHT22;3292;48.944;9.240;2022-12-26T09:08:39;9.90;99.90
6518;DHT22;3292;48.944;9.240;2022-12-26T09:11:08;9.90;99.90
6518;DHT22;3292;48.944;9.240;2022-12-26T09:13:36;9.80;99.90
6518;DHT22;3292;48.944;9.240;2022-12-26T09:16:07;9.70;99.90
6518;DHT22;3292;48.944;9.240;2022-12-26T09:18:35;9.70;99.90
6518;DHT22;3292;48.944;9.240;2022-12-26T09:21:08;9.70;99.90
6518;DHT22;3292;48.944;9.240;2022-12-26T09:23:37;9.60;99.90
6518;DHT22;3292;48.944;9.240;2022-12-26T09:26:06;9.60;99.90
6518;DHT22;3292;48.944;9.240;2022-12-26T09:28:34;9.70;99.90
6518;DHT22;3292;48.944;9.240;2022-12-26T09:31:06;9.70;99.90
6518;DHT22;3292;48.944;9.240;2022-12-26T09:33:35;9.60;99.90
6518;DHT22;3292;48.944;9.240;2022-12-26T09:36:08;9.70;99.90
6518;DHT22;3292;48.944;9.240;2022-12-26T09:38:35;9.70;99.90
6518;DHT22;3292;48.944;9.240;2022-12-26T09:41:16;9.70;99.90
6518;DHT22;3292;48.944;9.240;2022-12-26T09:43:53;9.70;99.90
6518;DHT22;3292;48.944;9.240;2022-12-26T09:46:32;9.70;99.90
6518;DHT22;3292;48.944;9.240;2022-12-26T09:49:05;9.80;99.90
6518;DHT22;3292;48.944;9.240;2022-12-26T09:51:39;9.80;99.90
6518;DHT22;3292;48.944;9.240;2022-12-26T09:54:13;9.90;99.90
6518;DHT22;3292;48.944;9.240;2022-12-26T09:56:45;9.90;99.90
6518;DHT22;3292;48.944;9.240;2022-12-26T09:59:18;9.90;99.90
6518;DHT22;3292;48.944;9.240;2022-12-26T10:02:03;9.90;99.90
6518;DHT22;3292;48.944;9.240;2022-12-26T10:04:35;9.90;99.90
6518;DHT22;3292;48.944;9.240;2022-12-26T10:07:20;10.00;99.90
6518;DHT22;3292;48.944;9.240;2022-12-26T10:10:08;10.00;99.90
6518;DHT22;3292;48.944;9.240;2022-12-26T10:12:44;10.00;99.90
6518;DHT22;3292;48.944;9.240;2022-12-26T10:15:35;10.00;99.90
6518;DHT22;3292;48.944;9.240;2022-12-26T10:18:25;10.00;99.90
6518;DHT22;3292;48.944;9.240;2022-12-26T10:21:09;10.00;99.90
6518;DHT22;3292;48.944;9.240;2022-12-26T10:23:43;10.00;99.90
6518;DHT22;3292;48.944;9.240;2022-12-26T10:26:16;10.10;99.90
6518;DHT22;3292;48.944;9.240;2022-12-26T10:28:50;10.10;99.90
6518;DHT22;3292;48.944;9.240;2022-12-26T10:31:23;10.00;99.90
6518;DHT22;3292;48.944;9.240;2022-12-26T10:33:59;10.00;99.90
6518;DHT22;3292;48.944;9.240;2022-12-26T10:36:36;10.10;99.90
6518;DHT22;3292;48.944;9.240;2022-12-26T10:39:21;10.10;99.90
6518;DHT22;3292;48.944;9.240;2022-12-26T10:41:52;10.10;99.90
6518;DHT22;3292;48.944;9.240;2022-12-26T10:44:32;10.10;99.90
6518;DHT22;3292;48.944;9.240;2022-12-26T10:47:12;10.10;99.90
6518;DHT22;3292;48.944;9.240;2022-12-26T10:49:45;10.00;99.90
6518;DHT22;3292;48.944;9.240;2022-12-26T10:52:15;10.00;99.90
6518;DHT22;3292;48.944;9.240;2022-12-26T10:54:50;10.00;99.90
6518;DHT22;3292;48.944;9.240;2022-12-26T10:57:21;9.90;99.90
6518;DHT22;3292;48.944;9.240;2022-12-26T10:59:53;10.00;99.90
6518;DHT22;3292;48.944;9.240;2022-12-26T11:02:39;9.90;99.90
6518;DHT22;3292;48.944;9.240;2022-12-26T11:05:22;9.90;99.90
6518;DHT22;3292;48.944;9.240;2022-12-26T11:07:55;9.90;99.90
6518;DHT22;3292;48.944;9.240;2022-12-26T11:10:31;10.00;99.90
6518;DHT22;3292;48.944;9.240;2022-12-26T11:13:01;10.00;99.90
6518;DHT22;3292;48.944;9.240;2022-12-26T11:15:45;10.00;99.90
6518;DHT22;3292;48.944;9.240;2022-12-26T11:18:18;10.00;99.90
6518;DHT22;3292;48.944;9.240;2022-12-26T11:20:53;10.00;99.90
6518;DHT22;3292;48.944;9.240;2022-12-26T11:23:28;10.00;99.90
6518;DHT22;3292;48.944;9.240;2022-12-26T11:26:00;10.00;99.90
6518;DHT22;3292;48.944;9.240;2022-12-26T11:28:34;10.00;99.90
6518;DHT22;3292;48.944;9.240;2022-12-26T11:31:06;10.00;99.90
6518;DHT22;3292;48.944;9.240;2022-12-26T11:33:41;10.10;99.90
6518;DHT22;3292;48.944;9.240;2022-12-26T11:36:16;10.10;99.90
6518;DHT22;3292;48.944;9.240;2022-12-26T11:38:58;10.00;99.90
6518;DHT22;3292;48.944;9.240;2022-12-26T11:41:38;10.00;99.90
6518;DHT22;3292;48.944;9.240;2022-12-26T11:44:23;10.10;99.90
6518;DHT22;3292;48.944;9.240;2022-12-26T11:46:57;10.00;99.90
6518;DHT22;3292;48.944;9.240;2022-12-26T11:50:13;10.00;99.90
6518;DHT22;3292;48.944;9.240;2022-12-26T11:52:37;10.10;99.90
6518;DHT22;3292;48.944;9.240;2022-12-26T11:55:26;10.10;99.90
6518;DHT22;3292;48.944;9.240;2022-12-26T11:58:05;10.20;99.90
6518;DHT22;3292;48.944;9.240;2022-12-26T12:01:04;10.20;99.90
6518;DHT22;3292;48.944;9.240;2022-12-26T12:03:34;10.30;99.90
6518;DHT22;3292;48.944;9.240;2022-12-26T12:06:26;10.20;99.90
6518;DHT22;3292;48.944;9.240;2022-12-26T12:09:15;10.30;99.90
6518;DHT22;3292;48.944;9.240;2022-12-26T12:11:54;10.30;99.90
6518;DHT22;3292;48.944;9.240;2022-12-26T12:17:40;10.30;99.90
6518;DHT22;3292;48.944;9.240;2022-12-26T12:20:30;10.40;99.90
6518;DHT22;3292;48.944;9.240;2022-12-26T12:23:20;10.40;99.90
6518;DHT22;3292;48.944;9.240;2022-12-26T12:26:02;10.50;99.90
6518;DHT22;3292;48.944;9.240;2022-12-26T12:32:01;10.70;99.90
6518;DHT22;3292;48.944;9.240;2022-12-26T12:37:36;10.80;99.90
6518;DHT22;3292;48.944;9.240;2022-12-26T12:40:21;10.80;99.90
6518;DHT22;3292;48.944;9.240;2022-12-26T12:42:59;10.80;99.90
6518;DHT22;3292;48.944;9.240;2022-12-26T12:45:39;10.70;99.90
6518;DHT22;3292;48.944;9.240;2022-12-26T12:48:30;10.70;99.90
6518;DHT22;3292;48.944;9.240;2022-12-26T12:51:08;10.70;99.90
6518;DHT22;3292;48.944;9.240;2022-12-26T12:54:00;10.60;99.90
6518;DHT22;3292;48.944;9.240;2022-12-26T12:56:37;10.60;99.90
6518;DHT22;3292;48.944;9.240;2022-12-26T12:59:18;10.60;99.90
6518;DHT22;3292;48.944;9.240;2022-12-26T13:01:49;10.60;99.90
6518;DHT22;3292;48.944;9.240;2022-12-26T13:04:20;10.60;99.90
6518;DHT22;3292;48.944;9.240;2022-12-26T13:06:52;10.50;99.90
6518;DHT22;3292;48.944;9.240;2022-12-26T13:09:25;10.50;99.90
6518;DHT22;3292;48.944;9.240;2022-12-26T13:12:13;10.50;99.90
6518;DHT22;3292;48.944;9.240;2022-12-26T13:14:45;10.50;99.90
6518;DHT22;3292;48.944;9.240;2022-12-26T13:17:22;10.50;99.90
6518;DHT22;3292;48.944;9.240;2022-12-26T13:19:58;10.50;99.90
6518;DHT22;3292;48.944;9.240;2022-12-26T13:22:32;10.50;99.90
6518;DHT22;3292;48.944;9.240;2022-12-26T13:25:23;10.50;99.90
6518;DHT22;3292;48.944;9.240;2022-12-26T13:27:53;10.50;99.90
6518;DHT22;3292;48.944;9.240;2022-12-26T13:30:38;10.50;99.90
6518;DHT22;3292;48.944;9.240;2022-12-26T13:33:09;10.50;99.90
6518;DHT22;3292;48.944;9.240;2022-12-26T13:36:03;10.50;99.90
6518;DHT22;3292;48.944;9.240;2022-12-26T13:41:35;10.50;99.90
6518;DHT22;3292;48.944;9.240;2022-12-26T13:44:25;10.50;99.90
6518;DHT22;3292;48.944;9.240;2022-12-26T13:46:56;10.50;99.90
6518;DHT22;3292;48.944;9.240;2022-12-26T13:49:30;10.50;99.90
6518;DHT22;3292;48.944;9.240;2022-12-26T13:52:31;10.50;99.90
6518;DHT22;3292;48.944;9.240;2022-12-26T13:55:31;10.60;99.90
6518;DHT22;3292;48.944;9.240;2022-12-26T13:58:28;10.60;99.90
6518;DHT22;3292;48.944;9.240;2022-12-26T14:01:02;10.60;99.90
6518;DHT22;3292;48.944;9.240;2022-12-26T14:04:00;10.60;99.90
6518;DHT22;3292;48.944;9.240;2022-12-26T14:06:58;10.60;99.90
6518;DHT22;3292;48.944;9.240;2022-12-26T14:09:40;10.60;99.90
6518;DHT22;3292;48.944;9.240;2022-12-26T14:18:37;10.60;99.90
6518;DHT22;3292;48.944;9.240;2022-12-26T14:21:30;10.60;99.90
6518;DHT22;3292;48.944;9.240;2022-12-26T14:24:07;10.60;99.90
6518;DHT22;3292;48.944;9.240;2022-12-26T14:26:45;10.60;99.90
6518;DHT22;3292;48.944;9.240;2022-12-26T14:29:20;10.60;99.90
6518;DHT22;3292;48.944;9.240;2022-12-26T14:32:05;10.60;99.90
6518;DHT22;3292;48.944;9.240;2022-12-26T14:34:54;10.50;99.90
6518;DHT22;3292;48.944;9.240;2022-12-26T14:37:33;10.60;99.90
6518;DHT22;3292;48.944;9.240;2022-12-26T14:43:28;10.60;99.90
6518;DHT22;3292;48.944;9.240;2022-12-26T14:45:55;10.60;99.90
6518;DHT22;3292;48.944;9.240;2022-12-26T14:48:58;10.60;99.90
6518;DHT22;3292;48.944;9.240;2022-12-26T14:51:57;10.60;99.90
6518;DHT22;3292;48.944;9.240;2022-12-26T14:55:38;10.50;99.90
6518;DHT22;3292;48.944;9.240;2022-12-26T14:58:30;10.50;99.90
6518;DHT22;3292;48.944;9.240;2022-12-26T15:01:42;10.60;99.90
6518;DHT22;3292;48.944;9.240;2022-12-26T15:04:40;10.60;99.90
6518;DHT22;3292;48.944;9.240;2022-12-26T15:10:39;10.50;99.90
6518;DHT22;3292;48.944;9.240;2022-12-26T15:16:31;10.40;99.90
6518;DHT22;3292;48.944;9.240;2022-12-26T15:22:36;10.40;99.90
6518;DHT22;3292;48.944;9.240;2022-12-26T15:25:40;10.40;99.90
6518;DHT22;3292;48.944;9.240;2022-12-26T15:28:41;10.40;99.90
6518;DHT22;3292;48.944;9.240;2022-12-26T15:31:28;10.30;99.90
6518;DHT22;3292;48.944;9.240;2022-12-26T15:34:01;10.40;99.90
6518;DHT22;3292;48.944;9.240;2022-12-26T15:36:42;10.40;99.90
6518;DHT22;3292;48.944;9.240;2022-12-26T15:39:23;10.40;99.90
6518;DHT22;3292;48.944;9.240;2022-12-26T15:41:58;10.40;99.90
6518;DHT22;3292;48.944;9.240;2022-12-26T15:44:37;10.40;99.90
6518;DHT22;3292;48.944;9.240;2022-12-26T15:47:17;10.40;99.90
6518;DHT22;3292;48.944;9.240;2022-12-26T15:50:02;10.30;99.90
6518;DHT22;3292;48.944;9.240;2022-12-26T15:52:42;10.30;99.90
6518;DHT22;3292;48.944;9.240;2022-12-26T15:55:28;10.30;99.90
6518;DHT22;3292;48.944;9.240;2022-12-26T15:57:59;10.30;99.90
6518;DHT22;3292;48.944;9.240;2022-12-26T16:00:31;10.30;99.90
6518;DHT22;3292;48.944;9.240;2022-12-26T16:03:20;10.30;99.90
6518;DHT22;3292;48.944;9.240;2022-12-26T16:05:55;10.20;99.90
6518;DHT22;3292;48.944;9.240;2022-12-26T16:08:47;10.20;99.90
6518;DHT22;3292;48.944;9.240;2022-12-26T16:11:41;10.20;99.90
6518;DHT22;3292;48.944;9.240;2022-12-26T16:14:22;10.20;99.90
6518;DHT22;3292;48.944;9.240;2022-12-26T16:16:52;10.10;99.90
6518;DHT22;3292;48.944;9.240;2022-12-26T16:19:22;10.10;99.90
6518;DHT22;3292;48.944;9.240;2022-12-26T16:21:58;10.10;99.90
6518;DHT22;3292;48.944;9.240;2022-12-26T16:24:46;10.00;99.90
6518;DHT22;3292;48.944;9.240;2022-12-26T16:30:11;10.00;99.90
6518;DHT22;3292;48.944;9.240;2022-12-26T16:32:42;10.00;99.90
6518;DHT22;3292;48.944;9.240;2022-12-26T16:35:17;10.00;99.90
6518;DHT22;3292;48.944;9.240;2022-12-26T16:37:47;9.90;99.90
6518;DHT22;3292;48.944;9.240;2022-12-26T16:40:26;9.90;99.90
6518;DHT22;3292;48.944;9.240;2022-12-26T16:42:59;9.90;99.90
6518;DHT22;3292;48.944;9.240;2022-12-26T16:45:29;9.90;99.90
6518;DHT22;3292;48.944;9.240;2022-12-26T16:48:06;9.90;99.90
6518;DHT22;3292;48.944;9.240;2022-12-26T16:50:44;9.90;99.90
6518;DHT22;3292;48.944;9.240;2022-12-26T16:53:13;9.90;99.90
6518;DHT22;3292;48.944;9.240;2022-12-26T16:55:44;10.00;99.90
6518;DHT22;3292;48.944;9.240;2022-12-26T16:58:46;10.00;99.90
6518;DHT22;3292;48.944;9.240;2022-12-26T17:01:31;10.00;99.90
6518;DHT22;3292;48.944;9.240;2022-12-26T17:04:02;10.00;99.90
6518;DHT22;3292;48.944;9.240;2022-12-26T17:06:35;9.90;99.90
6518;DHT22;3292;48.944;9.240;2022-12-26T17:09:07;9.80;99.90
6518;DHT22;3292;48.944;9.240;2022-12-26T17:11:44;9.80;99.90
6518;DHT22;3292;48.944;9.240;2022-12-26T17:14:24;9.70;99.90
6518;DHT22;3292;48.944;9.240;2022-12-26T17:16:56;9.70;99.90
6518;DHT22;3292;48.944;9.240;2022-12-26T17:19:28;9.60;99.90
6518;DHT22;3292;48.944;9.240;2022-12-26T17:25:21;9.60;99.90
6518;DHT22;3292;48.944;9.240;2022-12-26T17:28:21;9.70;99.90
6518;DHT22;3292;48.944;9.240;2022-12-26T17:30:51;9.70;99.90
6518;DHT22;3292;48.944;9.240;2022-12-26T17:33:28;9.60;99.90
6518;DHT22;3292;48.944;9.240;2022-12-26T17:36:03;9.50;99.90
6518;DHT22;3292;48.944;9.240;2022-12-26T17:38:48;9.50;99.90
6518;DHT22;3292;48.944;9.240;2022-12-26T17:44:35;9.40;99.90
6518;DHT22;3292;48.944;9.240;2022-12-26T17:47:31;9.40;99.90
6518;DHT22;3292;48.944;9.240;2022-12-26T17:50:01;9.40;99.90
6518;DHT22;3292;48.944;9.240;2022-12-26T17:52:35;9.40;99.90
6518;DHT22;3292;48.944;9.240;2022-12-26T17:55:12;9.30;99.90